^^
Datos históricos de la estación: Murcia-Puente Tocinos
Diario Informe para Abril 1, 2019 Unidades:  Ingés    Métrico   Ambas
Diario Semanal Mensual Anual
  Máxima: Mínima: Promedio:
Temperatura: 93.4 °F 70.2 °F 78.8 °F
Punto de rocio: 68.5 °F 48.9 °F 61.5 °F
Humedad: 92% 22.9% 62%
Velocidad viento: 6.9mph 0mph 4.3mph
Racha viento: 15mph - -
Viento- - SSO
Presión: 29.9 in 29.7 in -
Precipitación: 0 in    
 
 
Tabla de datos para Abril 1, 2019
Hora Temperatura Punto de rocio Presión Viento Velocidad viento Racha viento Humedad Intensidad lluvia(por hora) Nubes
00:04 71.4 °F 68 °F 29.9 in NNO 2.9 mph 5 mph 89.2% 0 in
00:09 71.4 °F 68 °F 29.9 in North 2.6 mph 4.6 mph 89% 0 in
00:14 71.2 °F 68.2 °F 29.9 in North 1.8 mph 5.2 mph 89.8% 0 in
00:19 71.2 °F 68.2 °F 29.9 in NNO 2.1 mph 5 mph 90% 0 in
00:24 71.2 °F 68.2 °F 29.9 in NNO 2.9 mph 5 mph 90% 0 in
00:29 71.1 °F 68 °F 29.9 in North 2.7 mph 5 mph 90% 0 in
00:34 71.1 °F 68 °F 29.9 in NNE 2.4 mph 5.2 mph 90% 0 in
00:39 71.1 °F 68 °F 29.9 in NE 2.5 mph 5.2 mph 90% 0 in
00:44 70.9 °F 67.8 °F 29.9 in NNE 2.9 mph 5.2 mph 90% 0 in
00:49 70.7 °F 67.8 °F 29.9 in NNE 2.9 mph 5 mph 90.9% 0 in
00:54 70.5 °F 67.8 °F 29.9 in NNE 3.1 mph 5 mph 91% 0 in
00:59 70.5 °F 67.8 °F 29.9 in NE 2.9 mph 5 mph 91% 0 in
01:04 70.5 °F 67.8 °F 29.9 in NE 2.4 mph 4 mph 91% 0 in
01:09 70.5 °F 67.8 °F 29.9 in NNE 2.3 mph 4.6 mph 91% 0 in
01:14 70.3 °F 67.6 °F 29.9 in NNE 2 mph 5 mph 91% 0 in
01:19 70.3 °F 67.6 °F 29.9 in North 2.2 mph 5.2 mph 91.3% 0 in
01:24 70.3 °F 67.8 °F 29.9 in North 2.9 mph 5.2 mph 92% 0 in
01:29 70.3 °F 67.8 °F 29.9 in NNE 2.9 mph 5 mph 92% 0 in
01:34 70.3 °F 67.8 °F 29.9 in NNE 2.9 mph 5 mph 92% 0 in
01:39 70.2 °F 67.8 °F 29.9 in NE 2.8 mph 5 mph 92% 0 in
01:44 70.2 °F 67.6 °F 29.9 in NE 2.4 mph 5 mph 92% 0 in
01:49 70.2 °F 67.6 °F 29.9 in NE 2.4 mph 5 mph 92% 0 in
01:54 70.3 °F 67.8 °F 29.9 in NE 2.4 mph 4 mph 92% 0 in
01:59 70.3 °F 67.8 °F 29.9 in NE 2.2 mph 2.9 mph 92% 0 in
02:04 70.3 °F 67.8 °F 29.9 in NE 1.8 mph 3.5 mph 92% 0 in
02:09 70.3 °F 67.8 °F 29.9 in NNE 1.8 mph 4.6 mph 92% 0 in
02:14 70.3 °F 68 °F 29.9 in NNE 1.8 mph 5 mph 92% 0 in
02:19 70.3 °F 68 °F 29.9 in NNE 1.7 mph 4 mph 92% 0 in
02:24 70.5 °F 68.2 °F 29.9 in NE 1.4 mph 3.6 mph 92% 0 in
02:29 70.5 °F 68.2 °F 29.9 in NE 1.4 mph 4 mph 92% 0 in
02:34 70.7 °F 68.4 °F 29.9 in SSO 1.4 mph 3.5 mph 92% 0 in
02:39 70.9 °F 68.4 °F 29.9 in SSO 1.5 mph 3 mph 92% 0 in
02:44 70.9 °F 68.4 °F 29.9 in SSO 1.8 mph 2.4 mph 91.7% 0 in
02:49 71.1 °F 68.4 °F 29.9 in SSO 1.4 mph 4 mph 91.1% 0 in
02:54 71.1 °F 68.4 °F 29.9 in Calm   5 mph 91% 0 in
02:59 71.2 °F 68.5 °F 29.9 in Este 0.5 mph 5 mph 91% 0 in
03:04 71.2 °F 68.4 °F 29.9 in NNO 1.8 mph 4.7 mph 90.5% 0 in
03:09 71.4 °F 68.4 °F 29.9 in NNO 2.1 mph 5 mph 90% 0 in
03:14 71.4 °F 68.4 °F 29.9 in NNE 2.9 mph 5 mph 90% 0 in
03:19 71.4 °F 68.4 °F 29.9 in North 2.7 mph 5 mph 90% 0 in
03:24 71.6 °F 68.5 °F 29.9 in North 2 mph 3.6 mph 90% 0 in
03:29 71.6 °F 68.5 °F 29.9 in North 2 mph 4.6 mph 90% 0 in
03:34 71.8 °F 68.5 °F 29.9 in NNO 2 mph 6.2 mph 89.7% 0 in
03:39 71.8 °F 68.4 °F 29.9 in NO 2.2 mph 6 mph 89% 0 in
03:44 71.8 °F 68.4 °F 29.9 in NO 2.9 mph 6 mph 89% 0 in
03:49 71.8 °F 68.4 °F 29.9 in Oeste 2.8 mph 5 mph 89% 0 in
03:54 71.8 °F 68.2 °F 29.9 in Oeste 2.4 mph 4.7 mph 88.3% 0 in
03:59 71.8 °F 68 °F 29.9 in Oeste 2.4 mph 6.9 mph 88% 0 in
04:04 71.8 °F 68 °F 29.9 in SO 2.4 mph 7 mph 88% 0 in
04:09 71.8 °F 68 °F 29.9 in Oeste 2.5 mph 6 mph 88% 0 in
04:14 71.8 °F 68 °F 29.9 in North 2.9 mph 6.4 mph 88% 0 in
04:19 71.8 °F 68 °F 29.9 in NO 2.9 mph 7 mph 88% 0 in
04:24 71.8 °F 68 °F 29.9 in NO 2.9 mph 6 mph 88% 0 in
04:29 71.8 °F 68 °F 29.9 in NNO 2.8 mph 5 mph 88% 0 in
04:34 71.8 °F 68 °F 29.9 in NO 2.4 mph 3.5 mph 88% 0 in
04:39 71.8 °F 68 °F 29.9 in Oeste 2.3 mph 4.6 mph 88% 0 in
04:44 71.8 °F 68 °F 29.9 in OSO 2 mph 5.2 mph 88% 0 in
04:49 72 °F 68.2 °F 29.9 in Oeste 2.2 mph 5 mph 87.9% 0 in
04:54 72 °F 67.8 °F 29.9 in Oeste 2.9 mph 5 mph 87% 0 in
04:59 72 °F 67.8 °F 29.9 in Oeste 2.6 mph 5 mph 87% 0 in
05:04 72 °F 67.8 °F 29.9 in OSO 2 mph 5 mph 87% 0 in
05:09 72.1 °F 68 °F 29.9 in SO 2.1 mph 5.2 mph 87% 0 in
05:14 72.1 °F 68.2 °F 29.9 in SO 2.4 mph 5 mph 87% 0 in
05:19 72.1 °F 68.2 °F 29.9 in SO 2.5 mph 6.2 mph 87% 0 in
05:24 72.1 °F 68 °F 29.9 in SO 2.9 mph 6 mph 86.6% 0 in
05:29 72.1 °F 67.6 °F 29.9 in OSO 2.9 mph 6.2 mph 86% 0 in
05:34 72.1 °F 67.6 °F 29.9 in ONO 3.1 mph 6 mph 86% 0 in
05:39 72.1 °F 67.6 °F 29.9 in ONO 2.9 mph 6 mph 86% 0 in
05:44 72.1 °F 67.6 °F 29.9 in OSO 2 mph 6.2 mph 86% 0 in
05:49 72.1 °F 67.6 °F 29.9 in SO 2.3 mph 6 mph 86% 0 in
05:54 72.1 °F 67.6 °F 29.9 in OSO 3.1 mph 5.8 mph 86% 0 in
05:59 72.3 °F 67.8 °F 29.9 in OSO 3 mph 6 mph 86% 0 in
06:04 72.3 °F 67.8 °F 29.9 in OSO 2.9 mph 6 mph 86% 0 in
06:09 72.3 °F 67.8 °F 29.9 in OSO 2.9 mph 6 mph 86% 0 in
06:14 72.3 °F 67.8 °F 29.9 in OSO 2.9 mph 7.6 mph 86% 0 in
06:19 72.3 °F 67.6 °F 29.9 in SO 2.9 mph 8.1 mph 85.4% 0 in
06:24 72.3 °F 67.6 °F 29.9 in OSO 3.1 mph 8 mph 85% 0 in
06:29 72.3 °F 67.6 °F 29.9 in OSO 3 mph 6 mph 85% 0 in
06:34 72.3 °F 67.6 °F 29.9 in SO 2.9 mph 5 mph 85% 0 in
06:39 72.3 °F 67.6 °F 29.9 in SSO 2.9 mph 9.2 mph 85% 0 in
06:44 72.1 °F 67.5 °F 29.9 in SO 3.1 mph 9 mph 85% 0 in
06:49 72.1 °F 67.5 °F 29.9 in SO 3.2 mph 7 mph 85% 0 in
06:54 72.1 °F 67.5 °F 29.9 in OSO 3.6 mph 7 mph 85% 0 in
06:59 72.1 °F 67.5 °F 29.9 in OSO 3.6 mph 6.2 mph 85% 0 in
07:04 72.1 °F 67.5 °F 29.9 in SO 3.6 mph 6.9 mph 85% 0 in
07:09 72.1 °F 67.3 °F 29.9 in SO 3.7 mph 7 mph 85% 0 in
07:14 72 °F 67.3 °F 29.9 in Sur 4 mph 6.9 mph 85% 0 in
07:19 72 °F 67.1 °F 29.9 in SSO 4.1 mph 9.2 mph 85% 0 in
07:24 71.8 °F 66.9 °F 29.9 in SO 4.3 mph 9 mph 85% 0 in
07:29 71.8 °F 66.9 °F 29.9 in OSO 4.3 mph 8.1 mph 85% 0 in
07:34 71.6 °F 66.9 °F 29.9 in Oeste 4.3 mph 8 mph 85% 0 in
07:39 71.6 °F 67.1 °F 29.9 in ONO 4.1 mph 6 mph 85.8% 0 in
07:44 71.6 °F 67.1 °F 29.9 in Oeste 3.6 mph 7.4 mph 86% 0 in
07:49 71.6 °F 67.3 °F 29.9 in SO 3.5 mph 7 mph 86% 0 in
07:54 71.4 °F 67.1 °F 29.9 in SSO 3.1 mph 7 mph 86% 0 in
07:59 71.4 °F 66.9 °F 29.9 in OSO 3.4 mph 8.1 mph 86% 0 in
08:04 71.4 °F 66.9 °F 29.9 in SO 4.3 mph 8.5 mph 85.9% 0 in
08:09 71.4 °F 66.9 °F 29.9 in SO 4.3 mph 9 mph 85.7% 0 in
08:14 71.4 °F 66.9 °F 29.9 in Oeste 4.3 mph 7 mph 86% 0 in
08:19 71.4 °F 66.9 °F 29.9 in SO 4.2 mph 7 mph 86% 0 in
08:24 71.2 °F 66.9 °F 29.9 in SSO 3.6 mph 6.9 mph 86% 0 in
08:29 71.2 °F 66.9 °F 29.9 in SSO 3.8 mph 9.7 mph 86% 0 in
08:34 71.2 °F 66.7 °F 29.9 in SSO 4.3 mph 10 mph 86% 0 in
08:39 71.2 °F 66.7 °F 29.9 in SO 4.4 mph 7.4 mph 86% 0 in
08:44 71.2 °F 66.7 °F 29.9 in OSO 4.7 mph 7.4 mph 86% 0 in
08:49 71.2 °F 66.6 °F 29.9 in SO 4.5 mph 8.1 mph 85.1% 0 in
08:54 71.1 °F 66.2 °F 29.9 in SSO 4 mph 9.7 mph 85% 0 in
08:59 70.9 °F 66.6 °F 29.9 in SO 4.3 mph 10 mph 86% 0 in
09:04 70.9 °F 66.4 °F 29.9 in OSO 5.2 mph 8.5 mph 86% 0 in
09:09 70.7 °F 66.2 °F 29.9 in SO 5.2 mph 9 mph 86% 0 in
09:14 70.9 °F 66.4 °F 29.9 in OSO 5.2 mph 8.1 mph 86% 0 in
09:19 70.9 °F 66.6 °F 29.9 in OSO 4.9 mph 8 mph 86% 0 in
09:24 71.1 °F 66.6 °F 29.9 in SO 4 mph 7 mph 86% 0 in
09:29 71.2 °F 66.6 °F 29.9 in OSO 3.9 mph 7.4 mph 85.5% 0 in
09:34 71.2 °F 66.6 °F 29.9 in OSO 3.6 mph 7 mph 85% 0 in
09:39 71.2 °F 66.6 °F 29.9 in SO 3.6 mph 6 mph 85% 0 in
09:44 71.2 °F 66.6 °F 29.9 in SO 3.6 mph 6.9 mph 85% 0 in
09:49 71.4 °F 66.6 °F 29.9 in OSO 3.8 mph 7 mph 85% 0 in
09:54 71.4 °F 66.7 °F 29.9 in SO 4.3 mph 9.2 mph 84.7% 0 in
09:59 71.4 °F 66.4 °F 29.9 in SO 4.3 mph 9.2 mph 84% 0 in
10:04 71.4 °F 66.4 °F 29.9 in OSO 4.3 mph 9 mph 84.4% 0 in
10:09 71.4 °F 66.4 °F 29.9 in OSO 4.3 mph 9.2 mph 84% 0 in
10:14 71.6 °F 66.7 °F 29.9 in SO 4.3 mph 9 mph 84.8% 0 in
10:19 72 °F 66.9 °F 29.9 in SO 4.4 mph 8.1 mph 84% 0 in
10:24 72 °F 66.6 °F 29.9 in SO 4.7 mph 8.7 mph 83.1% 0 in
10:29 72 °F 66.6 °F 29.9 in OSO 4.8 mph 9.2 mph 83% 0 in
10:34 72 °F 66.6 °F 29.9 in OSO 5.4 mph 9 mph 83% 0 in
10:39 72 °F 66.6 °F 29.9 in SSO 5.2 mph 8.5 mph 83% 0 in
10:44 72.1 °F 66.7 °F 29.9 in SO 4.7 mph 9 mph 83% 0 in
10:49 72.3 °F 66.6 °F 29.9 in SSO 4.6 mph 9.2 mph 82.4% 0 in
10:54 72.3 °F 66.6 °F 29.9 in SSO 4.3 mph 9.2 mph 82% 0 in
10:59 72.5 °F 66.7 °F 29.9 in Sur 4.8 mph 9.2 mph 81.9% 0 in
11:04 72.7 °F 66.6 °F 29.9 in SSO 5.9 mph 9 mph 81% 0 in
11:09 72.9 °F 66.4 °F 29.9 in SSO 5.8 mph 9.2 mph 80.4% 0 in
11:14 72.9 °F 66.4 °F 29.9 in SSO 5.4 mph 9 mph 80% 0 in
11:19 73 °F 66.2 °F 29.9 in SO 5.2 mph 8 mph 78.9% 0 in
11:24 73.6 °F 66.2 °F 29.9 in SO 4.7 mph 9.2 mph 77.8% 0 in
11:29 73.9 °F 66.2 °F 29.9 in SO 4.7 mph 9 mph 76.6% 0 in
11:34 74.5 °F 65.7 °F 29.9 in SSO 4.7 mph 10.4 mph 74.2% 0 in
11:39 74.8 °F 65.1 °F 29.9 in SSO 5.1 mph 10 mph 72% 0 in
11:44 74.8 °F 64.6 °F 29.9 in SSO 6.2 mph 9.7 mph 70.3% 0 in
11:49 75.4 °F 64.6 °F 29.9 in SO 6.2 mph 10 mph 69.3% 0 in
11:54 75.6 °F 64.8 °F 29.9 in SO 5.9 mph 9 mph 69% 0 in
11:59 76.1 °F 64.4 °F 29.9 in OSO 5.3 mph 8.5 mph 67% 0 in
12:04 76.6 °F 63.9 °F 29.9 in SO 4 mph 9 mph 64.9% 0 in
12:09 77 °F 63.9 °F 29.9 in Oeste 4.2 mph 8.1 mph 64.2% 0 in
12:14 77.4 °F 63.9 °F 29.9 in OSO 4.7 mph 12.7 mph 63.2% 0 in
12:19 77.5 °F 63.3 °F 29.9 in OSO 5 mph 13 mph 61.8% 0 in
12:24 77.9 °F 63.7 °F 29.9 in OSO 5.9 mph 12 mph 62% 0 in
12:29 78.4 °F 64 °F 29.9 in SO 5.4 mph 8.1 mph 61.2% 0 in
12:34 79.2 °F 63.3 °F 29.9 in SSO 4 mph 10.7 mph 58.3% 0 in
12:39 79.3 °F 62.8 °F 29.9 in SSO 4.3 mph 11 mph 57.1% 0 in
12:44 79.5 °F 63 °F 29.9 in SSO 5.4 mph 11 mph 56.9% 0 in
12:49 80.1 °F 62.2 °F 29.9 in SSO 5.4 mph 9 mph 54.6% 0 in
12:54 80.4 °F 61.7 °F 29.9 in SSO 5.4 mph 9.2 mph 52.8% 0 in
12:59 81 °F 61.3 °F 29.9 in Sur 5.4 mph 9.2 mph 51.3% 0 in
13:04 81.7 °F 61.5 °F 29.9 in SSO 5.4 mph 10 mph 50.5% 0 in
13:09 82 °F 60.6 °F 29.8 in SSO 5.6 mph 10.4 mph 48.5% 0 in
13:14 82 °F 60.3 °F 29.8 in SO 6.2 mph 10 mph 47.6% 0 in
13:19 82.8 °F 60.4 °F 29.8 in SSO 6.2 mph 9.7 mph 47.2% 0 in
13:24 82.9 °F 60.1 °F 29.8 in SSO 5.9 mph 10 mph 45.9% 0 in
13:29 83.5 °F 60.3 °F 29.8 in SO 5.7 mph 11.5 mph 45.6% 0 in
13:34 83.8 °F 60.1 °F 29.8 in SO 5.2 mph 12 mph 44.8% 0 in
13:39 84.4 °F 59.7 °F 29.8 in SO 5.2 mph 9.2 mph 43.5% 0 in
13:44 84.7 °F 59.4 °F 29.8 in OSO 5.4 mph 9.2 mph 42.5% 0 in
13:49 85.1 °F 59.4 °F 29.8 in SO 5.2 mph 9 mph 42% 0 in
13:54 85.5 °F 58.8 °F 29.8 in SSO 4.7 mph 10.4 mph 40.7% 0 in
13:59 85.8 °F 58.8 °F 29.8 in SO 4.9 mph 10 mph 40.2% 0 in
14:04 86.4 °F 58.5 °F 29.8 in SSO 5.4 mph 10.4 mph 39.1% 0 in
14:09 86.5 °F 58.3 °F 29.8 in SSO 5.2 mph 10 mph 38.6% 0 in
14:14 86.9 °F 57.6 °F 29.8 in SSO 4.7 mph 11.5 mph 37.1% 0 in
14:19 86.9 °F 57.7 °F 29.8 in SSO 4.8 mph 12 mph 37.2% 0 in
14:24 87.3 °F 57.6 °F 29.8 in SSO 5.4 mph 9.2 mph 36.7% 0 in
14:29 87.4 °F 57.2 °F 29.8 in SSO 5.7 mph 9.7 mph 36% 0 in
14:34 87.8 °F 57.2 °F 29.8 in SSO 6.4 mph 12.7 mph 35.4% 0 in
14:39 88 °F 56.8 °F 29.8 in SSO 6.3 mph 13 mph 35% 0 in
14:44 88.2 °F 56.7 °F 29.8 in SSO 6.2 mph 11.5 mph 34.4% 0 in
14:49 88.3 °F 56.5 °F 29.8 in SSO 6 mph 12 mph 34% 0 in
14:54 88.5 °F 56.5 °F 29.8 in Sur 5.4 mph 10.7 mph 33.9% 0 in
14:59 88.7 °F 56.1 °F 29.8 in SSE 5.7 mph 11 mph 33.2% 0 in
15:04 89.1 °F 56.3 °F 29.8 in SSO 6.4 mph 10 mph 33.2% 0 in
15:09 89.4 °F 55.9 °F 29.8 in SSO 6.2 mph 11.5 mph 32.4% 0 in
15:14 89.4 °F 55.8 °F 29.8 in SSO 5.4 mph 12 mph 32% 0 in
15:19 89.6 °F 55.9 °F 29.8 in SO 5.2 mph 10 mph 32% 0 in
15:24 90 °F 55.4 °F 29.8 in Oeste 4.7 mph 10.4 mph 31.2% 0 in
15:29 90.1 °F 55.4 °F 29.8 in SSO 5 mph 10 mph 31% 0 in
15:34 90.5 °F 54 °F 29.8 in Oeste 5.9 mph 10.4 mph 29.2% 0 in
15:39 90.9 °F 53.6 °F 29.8 in OSO 5.8 mph 10.4 mph 28.4% 0 in
15:44 91.2 °F 53.8 °F 29.8 in SO 5.4 mph 10.4 mph 28.2% 0 in
15:49 91.6 °F 53.6 °F 29.8 in OSO 5.4 mph 10.4 mph 27.8% 0 in
15:54 91.8 °F 53.2 °F 29.8 in SO 5.4 mph 14.5 mph 27.1% 0 in
15:59 91.9 °F 52.7 °F 29.8 in Oeste 5.7 mph 15 mph 26.6% 0 in
16:04 91.9 °F 52.3 °F 29.8 in SO 6.4 mph 15 mph 26.1% 0 in
16:09 92.3 °F 52.9 °F 29.8 in SO 5.8 mph 11.2 mph 26.3% 0 in
16:14 92.5 °F 53.2 °F 29.8 in ONO 4.3 mph 12 mph 26.6% 0 in
16:19 92.7 °F 52.3 °F 29.8 in SO 4.3 mph 10 mph 25.7% 0 in
16:24 92.8 °F 52 °F 29.8 in SSO 4.3 mph 11.4 mph 25.1% 0 in
16:29 92.7 °F 52 °F 29.8 in SSO 4.6 mph 12 mph 25.4% 0 in
16:34 92.5 °F 52.3 °F 29.8 in Sur 5.4 mph 10 mph 25.8% 0 in
16:39 92.5 °F 52.3 °F 29.8 in Sur 5.3 mph 8.5 mph 25.7% 0 in
16:44 92.8 °F 52.3 °F 29.8 in SSO 5.2 mph 11.5 mph 25.6% 0 in
16:49 92.8 °F 52.2 °F 29.8 in SSO 5.4 mph 12 mph 25.2% 0 in
16:54 92.8 °F 52.2 °F 29.8 in SO 6.2 mph 12.7 mph 25.3% 0 in
16:59 92.8 °F 52.3 °F 29.8 in SSO 6.2 mph 13 mph 25.5% 0 in
17:04 92.8 °F 52.5 °F 29.8 in SSO 6.2 mph 12 mph 25.6% 0 in
17:09 92.8 °F 51.4 °F 29.8 in SO 6.3 mph 13.8 mph 24.7% 0 in
17:14 93 °F 51.4 °F 29.8 in SSO 6.4 mph 14 mph 24.5% 0 in
17:19 92.8 °F 50.7 °F 29.8 in SSO 6.5 mph 12 mph 24% 0 in
17:24 92.8 °F 50.5 °F 29.7 in SSO 6.9 mph 12 mph 23.9% 0 in
17:29 93 °F 50.2 °F 29.7 in SSO 6.7 mph 12 mph 23.3% 0 in
17:34 93.2 °F 51.1 °F 29.7 in SSO 6.2 mph 9 mph 24% 0 in
17:39 93.4 °F 51.3 °F 29.7 in SSO 6 mph 9.2 mph 24% 0 in
17:44 93.4 °F 50.4 °F 29.7 in SSO 5.2 mph 9 mph 23.3% 0 in
17:49 92.8 °F 50.2 °F 29.7 in SSO 5.2 mph 9 mph 23.4% 0 in
17:54 92.7 °F 50.5 °F 29.7 in SSO 5.4 mph 8 mph 24% 0 in
17:59 92.5 °F 50.2 °F 29.7 in Sur 5.3 mph 11.5 mph 23.8% 0 in
18:04 92.1 °F 49.3 °F 29.7 in SO 5.2 mph 12 mph 23.3% 0 in
18:09 92.3 °F 49.5 °F 29.7 in SSO 5.2 mph 9 mph 23.3% 0 in
18:14 92.7 °F 50.4 °F 29.7 in OSO 5.4 mph 9 mph 23.9% 0 in
18:19 92.8 °F 50.5 °F 29.7 in OSO 5 mph 8.1 mph 23.9% 0 in
18:24 93 °F 49.5 °F 29.7 in OSO 4 mph 9.2 mph 22.9% 0 in
18:29 92.8 °F 50 °F 29.7 in ONO 4.3 mph 9 mph 23.4% 0 in
18:34 92.7 °F 49.6 °F 29.8 in ONO 5.2 mph 11.8 mph 23.2% 0 in
18:39 92.1 °F 49.5 °F 29.8 in ONO 5.2 mph 12 mph 23.3% 0 in
18:44 91.9 °F 50 °F 29.8 in ONO 5.4 mph 12.7 mph 23.9% 0 in
18:49 91.8 °F 48.9 °F 29.8 in ONO 5.6 mph 13 mph 23.3% 0 in
18:54 91.4 °F 49.5 °F 29.8 in ONO 6.2 mph 12 mph 23.9% 0 in
18:59 91 °F 49.1 °F 29.8 in ONO 6.2 mph 12.7 mph 23.9% 0 in
19:04 90.9 °F 51.8 °F 29.8 in OSO 6.2 mph 13 mph 26.7% 0 in
19:09 90.1 °F 59.5 °F 29.8 in SO 6.1 mph 12 mph 36.1% 0 in
19:14 89.1 °F 60.8 °F 29.8 in SO 5.9 mph 12 mph 38.9% 0 in
19:19 88.5 °F 60.8 °F 29.8 in SSO 5.8 mph 9.2 mph 39.7% 0 in
19:24 88 °F 60.6 °F 29.8 in SSO 5.4 mph 10.7 mph 40% 0 in
19:29 87.4 °F 60.8 °F 29.8 in SSO 5.7 mph 11 mph 40.9% 0 in
19:34 87.1 °F 61.2 °F 29.8 in SSO 6.4 mph 11 mph 42.1% 0 in
19:39 86.7 °F 61.5 °F 29.8 in SSO 6.2 mph 10 mph 43% 0 in
19:44 86.4 °F 60.3 °F 29.8 in SSO 5.4 mph 9 mph 41.5% 0 in
19:49 86.4 °F 59.2 °F 29.8 in SSO 5.4 mph 9.2 mph 40.2% 0 in
19:54 86.2 °F 58.8 °F 29.8 in SSO 5.4 mph 10.7 mph 39.7% 0 in
19:59 86 °F 58.5 °F 29.8 in Sur 5.5 mph 11 mph 39.4% 0 in
20:04 85.6 °F 58.5 °F 29.8 in Sur 5.9 mph 10.7 mph 39.8% 0 in
20:09 85.5 °F 59 °F 29.8 in Sur 6 mph 11 mph 40.8% 0 in
20:14 85.1 °F 57.6 °F 29.8 in Sur 6.4 mph 10 mph 39.4% 0 in
20:19 84.9 °F 56.1 °F 29.8 in Sur 6.3 mph 10.4 mph 37.6% 0 in
20:24 84.7 °F 57.7 °F 29.8 in Sur 6.2 mph 9.7 mph 39.8% 0 in
20:29 84.4 °F 58.3 °F 29.8 in Sur 6.1 mph 10 mph 41.2% 0 in
20:34 83.8 °F 58.5 °F 29.8 in Sur 5.9 mph 9.2 mph 42.2% 0 in
20:39 83.7 °F 59.2 °F 29.8 in Sur 5.9 mph 9.2 mph 43.7% 0 in
20:44 83.1 °F 60.1 °F 29.8 in SSO 5.9 mph 11.5 mph 45.8% 0 in
20:49 82.8 °F 60.8 °F 29.8 in SSO 6.2 mph 12 mph 47.5% 0 in
20:54 82.6 °F 60.8 °F 29.8 in SSO 6.9 mph 10 mph 47.9% 0 in
20:59 82.2 °F 59.7 °F 29.8 in SSO 6.6 mph 11.5 mph 46.3% 0 in
21:04 82.4 °F 58.5 °F 29.8 in SSO 5.9 mph 12 mph 44.1% 0 in
21:09 82.6 °F 58.6 °F 29.8 in SSO 5.8 mph 9.2 mph 44.4% 0 in
21:14 82.4 °F 60.1 °F 29.8 in SSO 5.4 mph 9.2 mph 46.9% 0 in
21:19 82 °F 59.7 °F 29.8 in SSO 5.4 mph 9.7 mph 46.8% 0 in
21:24 81.9 °F 58.5 °F 29.8 in SSO 5.4 mph 10 mph 45.1% 0 in
21:29 82 °F 57.4 °F 29.8 in SSO 5.4 mph 9.2 mph 43.1% 0 in
21:34 82 °F 56.7 °F 29.8 in SO 5.4 mph 8.7 mph 42% 0 in
21:39 82 °F 56.5 °F 29.8 in Oeste 4.9 mph 9.2 mph 41.7% 0 in
21:44 81.9 °F 56.1 °F 29.8 in OSO 3.6 mph 5.8 mph 41.3% 0 in
21:49 81.7 °F 55.6 °F 29.8 in SO 3.5 mph 6 mph 40.8% 0 in
21:54 81.5 °F 54.7 °F 29.8 in OSO 3.1 mph 6 mph 39.9% 0 in
21:59 81.3 °F 54.3 °F 29.8 in OSO 3.1 mph 7.6 mph 39.4% 0 in
22:04 81.3 °F 54 °F 29.8 in OSO 3.1 mph 8.1 mph 38.9% 0 in
22:09 81.1 °F 53.6 °F 29.8 in SO 3.2 mph 7 mph 38.6% 0 in
22:14 81.1 °F 53.1 °F 29.8 in SO 3.6 mph 5 mph 38% 0 in
22:19 81.1 °F 52.7 °F 29.8 in SO 3.5 mph 5.2 mph 37.5% 0 in
22:24 81.1 °F 52.3 °F 29.8 in SO 3.1 mph 5.2 mph 36.9% 0 in
22:29 81.1 °F 53.2 °F 29.8 in SSO 2.9 mph 5 mph 38.1% 0 in
22:34 81.1 °F 55.9 °F 29.8 in Sur 2.4 mph 4 mph 42.2% 0 in
22:39 80.6 °F 55 °F 29.8 in SSO 2.4 mph 5.9 mph 41.5% 0 in
22:44 80.2 °F 53.1 °F 29.8 in SO 2.4 mph 6 mph 39% 0 in
22:49 80.1 °F 53.6 °F 29.8 in SSO 2.5 mph 6 mph 40.1% 0 in
22:54 79.9 °F 55 °F 29.8 in SSO 3.1 mph 6.2 mph 42.6% 0 in
22:59 79.3 °F 55 °F 29.8 in Sur 3.6 mph 6.9 mph 43.1% 0 in
23:04 79.2 °F 54.7 °F 29.8 in Sur 4.7 mph 7 mph 43% 0 in
23:09 79.2 °F 54.1 °F 29.8 in Sur 4.7 mph 8.1 mph 42.2% 0 in
23:14 79 °F 53.8 °F 29.8 in Sur 4.7 mph 8.1 mph 42% 0 in
23:19 78.6 °F 53.1 °F 29.8 in SSO 4.8 mph 8.1 mph 41.1% 0 in
23:24 78.6 °F 52.9 °F 29.8 in Sur 5.2 mph 8.1 mph 40.9% 0 in
23:29 78.6 °F 52.5 °F 29.8 in Sur 5.1 mph 7 mph 40.3% 0 in
23:34 78.6 °F 52.2 °F 29.8 in Sur 4.7 mph 6.9 mph 39.8% 0 in
23:39 79 °F 51.8 °F 29.8 in SSO 4.7 mph 7 mph 38.8% 0 in
23:44 79.2 °F 52 °F 29.8 in SSO 4.7 mph 7.4 mph 38.7% 0 in
23:49 79.2 °F 51.6 °F 29.8 in SSO 4.7 mph 7 mph 38.5% 0 in
23:54 79 °F 51.3 °F 29.8 in SSO 4.7 mph 7 mph 38% 0 in
23:59 79 °F 51.3 °F 29.8 in Sur 4.6 mph 7 mph 38.3% 0 in
Murcia-Puente Tocinos, España
Compliments of Weather Underground - 3 mb

La estación de MeteoMurcia.com, publica sus datos en los siguientes proyectos:

Weather Underground PWS IMURCIAP2 Meteoclimatic www.awekas.at

W3Counter
Web Analytics